CDT,Max TemperatureF,Mean TemperatureF,Min TemperatureF,Max Dew PointF,MeanDew PointF,Min DewpointF,Max Humidity, Mean Humidity, Min Humidity, Max Sea Level PressureIn, Mean Sea Level PressureIn, Min Sea Level PressureIn, Max VisibilityMiles, Mean VisibilityMiles, Min VisibilityMiles, Max Wind SpeedMPH, Mean Wind SpeedMPH, Max Gust SpeedMPH,PrecipitationIn, CloudCover, Events, WindDirDegrees
2013-4-1,89,79,69,68,66,60,87,70,37,30.00,29.93,29.86,7,6,3,21,10,28,0.00,4,Rain,103
2013-4-2,89,77,72,69,68,66,84,77,61,29.97,29.89,29.74,7,6,4,16,9,20,0.00,6,Rain-Thunderstorm,126
2013-4-3,79,72,64,69,61,54,87,65,45,30.11,29.90,29.78,10,7,4,20,10,23,0.00,7,,21
2013-4-4,84,71,58,53,45,32,73,49,15,30.18,30.12,30.04,10,7,5,23,13,26,0.00,2,,5
2013-4-5,83,68,52,55,49,40,85,55,22,30.28,30.16,30.05,10,7,3,20,5,25,0.00,0,,91
2013-4-6,84,72,60,61,58,54,83,63,40,30.09,29.97,29.85,10,7,4,20,10,32,0.00,2,,139
2013-4-7,88,77,66,66,62,59,85,64,38,29.93,29.84,29.75,10,6,5,22,12,28,0.00,2,,148
2013-4-8,89,80,72,68,67,65,81,66,45,29.81,29.71,29.61,7,6,4,23,15,30,0.00,5,,152
2013-4-9,88,81,74,70,69,68,82,74,51,29.69,29.62,29.54,7,5,4,24,17,31,0.00,3,,156
2013-4-10,88,76,64,70,64,51,79,67,44,29.81,29.66,29.59,10,6,2,25,16,36,0.00,6,,43
2013-4-11,79,67,55,54,45,36,80,51,21,29.97,29.87,29.78,10,7,4,17,12,21,0.01,2,Rain,37
2013-4-12,86,70,54,62,54,48,84,61,30,29.95,29.89,29.83,10,7,4,21,7,31,0.00,1,,110
2013-4-13,87,74,63,65,59,48,87,63,25,29.93,29.81,29.71,7,6,5,21,12,28,0.00,4,,119
2013-4-14,94,82,72,69,66,59,83,65,31,29.78,29.72,29.62,7,6,4,17,7,22,0.00,5,,138
2013-4-15,91,81,71,69,68,64,87,70,41,29.79,29.72,29.64,7,5,2,22,13,26,0.00,2,,148
2013-4-16,93,83,73,74,70,60,87,70,34,29.83,29.77,29.71,7,4,2,25,12,30,0.00,3,,138
2013-4-17,96,86,77,74,72,66,90,69,36,29.84,29.73,29.60,7,4,2,25,15,34,0.00,5,Rain,145
2013-4-18,96,81,65,72,63,42,76,56,32,30.05,29.71,29.60,10,5,2,30,17,38,0.00,5,,86
2013-4-19,73,64,54,45,28,15,50,29,11,30.33,30.21,30.05,10,7,1,29,15,34,0.00,4,,38
2013-4-20,81,64,46,50,39,31,65,42,17,30.23,30.13,30.00,10,7,4,20,5,24,0.00,0,,118
2013-4-21,88,74,59,62,55,49,80,55,27,30.09,30.03,29.95,10,7,5,20,8,24,0.00,1,,107
2013-4-22,90,78,65,67,63,60,88,66,38,30.07,29.99,29.88,10,7,4,20,7,22,0.00,4,,123
2013-4-23,88,80,72,70,68,65,85,70,46,29.94,29.84,29.76,7,6,4,24,14,31,0.00,7,,139
2013-4-24,77,65,52,71,56,48,91,82,68,30.23,30.08,29.91,7,5,2,23,12,31,0.29,7,Rain-Thunderstorm,10
2013-4-25,65,62,59,62,55,49,91,78,61,30.26,30.20,30.14,10,5,1,17,8,21,0.00,8,Rain,327
2013-4-26,66,64,62,64,61,60,93,92,91,30.18,30.11,30.06,3,1,0,7,3,,0.01,8,Rain,180
2013-4-27,89,81,74,71,69,66,85,66,47,30.06,29.96,29.87,7,6,3,18,11,23,0.00,6,Thunderstorm,143
2013-4-28,76,70,64,72,67,60,92,83,59,30.00,29.91,29.82,10,6,1,34,11,44,1.40,6,Rain-Thunderstorm,86
2013-4-29,81,74,68,72,68,63,92,80,56,29.94,29.85,29.77,10,6,2,13,4,,0.02,6,Rain,97
2013-4-30,90,80,69,72,69,64,93,74,41,29.81,29.76,29.68,7,5,0,16,5,20,0.01,4,Fog-Rain,112